Time;durP1;ratioP1;P1;durP2;ratioP2;P2;SDS_P1;SDS_P2;PMS_P1;PMS_P2;Temp;Humidity;BMP_temperature;BMP_pressure;BME280_temperature;BME280_humidity;BME280_pressure;Samples;Min_cycle;Max_cycle;Signal;HPM_P1;HPM_P2
2022/01/18 00:00:40;;;;;;;62.30;18.65;;;;;;;4.38;100.00;103830.03;5270254;28;20024;-74
2022/01/18 00:03:10;;;;;;;60.92;21.05;;;;;;;4.38;100.00;103830.03;5264498;28;20032;-73
2022/01/18 00:05:44;;;;;;;49.03;18.60;;;;;;;4.37;100.00;103830.94;5267510;28;20030;-73
2022/01/18 00:08:17;;;;;;;57.38;20.55;;;;;;;4.35;100.00;103830.13;5273580;28;20542;-74
2022/01/18 00:10:48;;;;;;;56.20;19.98;;;;;;;4.36;100.00;103831.84;5269461;28;20042;-74
2022/01/18 00:16:26;;;;;;;51.10;19.42;;;;;;;4.28;100.00;103839.25;5263819;28;20028;-73
2022/01/18 00:19:01;;;;;;;51.78;19.33;;;;;;;4.26;100.00;103840.19;5277122;28;20028;-73
2022/01/18 00:24:18;;;;;;;59.75;21.10;;;;;;;4.23;100.00;103841.19;5284407;28;20065;-72
2022/01/18 00:26:48;;;;;;;65.22;21.90;;;;;;;4.22;100.00;103842.09;5266186;27;20027;-72
2022/01/18 00:29:22;;;;;;;55.13;21.50;;;;;;;4.19;100.00;103844.84;5274856;28;20027;-72
2022/01/18 00:34:44;;;;;;;66.20;22.48;;;;;;;4.16;100.00;103837.84;5270636;28;20055;-73
2022/01/18 00:37:34;;;;;;;63.38;22.42;;;;;;;4.18;100.00;103839.59;5284515;28;20043;-73
2022/01/18 00:40:06;;;;;;;66.78;22.92;;;;;;;4.18;100.00;103837.81;5284181;28;20031;-73
2022/01/18 00:42:36;;;;;;;65.85;22.25;;;;;;;4.18;100.00;103847.56;5270271;28;20435;-73
2022/01/18 00:45:07;;;;;;;71.97;24.23;;;;;;;4.17;100.00;103846.72;5263335;28;20028;-74
2022/01/18 00:47:38;;;;;;;71.20;25.52;;;;;;;4.14;100.00;103845.00;5263824;28;20098;-74
2022/01/18 00:50:09;;;;;;;64.55;25.45;;;;;;;4.09;100.00;103844.28;5272289;28;20038;-74
2022/01/18 00:52:43;;;;;;;74.97;24.75;;;;;;;4.07;100.00;103839.97;5267348;28;20478;-72
2022/01/18 00:55:14;;;;;;;76.53;25.60;;;;;;;4.01;100.00;103845.47;5273883;28;20031;-72
2022/01/18 00:57:44;;;;;;;77.30;23.10;;;;;;;3.97;100.00;103850.03;5279738;28;20034;-72
2022/01/18 01:00:15;;;;;;;78.13;23.65;;;;;;;3.89;100.00;103852.06;5274123;28;20506;-72
2022/01/18 01:02:45;;;;;;;64.60;25.02;;;;;;;3.81;100.00;103851.41;5276891;28;20031;-72
2022/01/18 01:05:16;;;;;;;64.43;24.98;;;;;;;3.72;100.00;103855.25;5262598;28;20149;-72
2022/01/18 01:07:46;;;;;;;70.55;23.17;;;;;;;3.62;100.00;103861.78;5270952;28;20115;-72
2022/01/18 01:10:17;;;;;;;70.43;26.77;;;;;;;3.60;100.00;103863.59;5268861;28;20400;-72
2022/01/18 01:12:47;;;;;;;70.05;26.20;;;;;;;3.57;100.00;103864.56;5271772;28;20051;-72
2022/01/18 01:15:20;;;;;;;62.38;24.45;;;;;;;3.55;100.00;103857.56;5280995;28;20062;-72
2022/01/18 01:18:08;;;;;;;68.75;25.23;;;;;;;3.54;100.00;103861.13;5273568;28;20024;-72
2022/01/18 01:34:51;;;;;;;79.03;25.25;;;;;;;3.62;100.00;103865.28;5269520;28;20350;-74
2022/01/18 01:43:13;;;;;;;96.32;30.20;;;;;;;3.74;100.00;103858.72;5273173;28;20020;-72
2022/01/18 01:45:44;;;;;;;104.50;31.58;;;;;;;3.81;100.00;103854.06;5287767;28;20023;-72
2022/01/18 01:48:17;;;;;;;78.63;27.63;;;;;;;3.86;100.00;103852.13;5288036;27;20031;-73
2022/01/18 01:50:53;;;;;;;104.55;27.80;;;;;;;3.90;100.00;103853.78;5273976;28;20291;-72
2022/01/18 01:53:24;;;;;;;90.25;28.92;;;;;;;3.90;100.00;103859.09;5278438;28;20073;-72
2022/01/18 01:55:55;;;;;;;95.40;29.75;;;;;;;3.92;100.00;103854.63;5266190;28;20055;-72
2022/01/18 01:58:26;;;;;;;90.93;29.30;;;;;;;3.91;100.00;103860.81;5266539;28;20190;-72
2022/01/18 02:01:04;;;;;;;82.05;28.10;;;;;;;3.94;100.00;103866.06;5266961;28;20024;-72
2022/01/18 02:03:36;;;;;;;112.15;30.23;;;;;;;3.96;100.00;103858.03;5280089;28;20026;-73
2022/01/18 02:06:06;;;;;;;108.40;28.35;;;;;;;3.97;100.00;103852.69;5274173;28;20430;-73
2022/01/18 02:08:37;;;;;;;108.13;28.67;;;;;;;3.99;100.00;103852.63;5287733;28;20110;-72
2022/01/18 02:11:07;;;;;;;87.40;28.38;;;;;;;4.04;100.00;103858.66;5287608;28;20111;-73
2022/01/18 02:13:39;;;;;;;92.45;30.50;;;;;;;4.04;100.00;103854.22;5287901;28;20023;-72
2022/01/18 02:16:17;;;;;;;198.38;35.08;;;;;;;4.02;100.00;103850.75;5287317;28;20027;-72
2022/01/18 02:21:52;;;;;;;164.93;32.90;;;;;;;3.97;100.00;103852.69;5287533;28;20030;-72
2022/01/18 02:24:23;;;;;;;147.63;36.08;;;;;;;3.99;100.00;103860.59;5286978;28;20023;-73
2022/01/18 02:26:53;;;;;;;101.70;30.23;;;;;;;4.00;100.00;103844.59;5273033;27;20020;-72
2022/01/18 02:29:24;;;;;;;111.30;31.65;;;;;;;4.07;100.00;103842.63;5275233;28;20027;-73
2022/01/18 02:31:55;;;;;;;145.85;33.30;;;;;;;4.05;100.00;103845.31;5266120;28;20024;-72
2022/01/18 02:34:26;;;;;;;105.60;29.77;;;;;;;4.06;100.00;103833.75;5279432;28;20024;-73
2022/01/18 02:36:57;;;;;;;96.55;29.20;;;;;;;4.08;100.00;103841.69;5286450;28;20024;-71
2022/01/18 02:39:28;;;;;;;95.13;27.83;;;;;;;4.10;100.00;103827.44;5287055;28;20019;-72
2022/01/18 02:42:05;;;;;;;83.28;28.10;;;;;;;4.16;100.00;103831.66;5287037;28;20672;-72
2022/01/18 02:44:36;;;;;;;99.15;29.10;;;;;;;4.14;100.00;103836.16;5273518;28;20030;-72
2022/01/18 02:47:07;;;;;;;84.35;25.85;;;;;;;4.11;100.00;103833.59;5276467;28;20111;-73
2022/01/18 02:49:37;;;;;;;80.20;25.60;;;;;;;4.10;100.00;103834.53;5265610;28;20107;-73
2022/01/18 02:52:08;;;;;;;115.95;30.05;;;;;;;4.06;100.00;103831.09;5277651;28;20023;-73
2022/01/18 02:54:39;;;;;;;99.97;28.17;;;;;;;4.04;100.00;103832.94;5272715;28;20102;-73
2022/01/18 02:57:13;;;;;;;76.63;27.92;;;;;;;4.05;100.00;103832.03;5286815;28;20020;-72
2022/01/18 02:59:48;;;;;;;98.65;27.95;;;;;;;4.07;100.00;103830.22;5286619;28;20066;-72
2022/01/18 03:05:13;;;;;;;86.38;25.60;;;;;;;4.08;100.00;103833.72;5265749;28;20028;-72
2022/01/18 03:07:44;;;;;;;77.78;27.05;;;;;;;4.09;100.00;103830.16;5272685;28;20030;-73
2022/01/18 03:10:15;;;;;;;89.90;27.67;;;;;;;4.09;100.00;103827.50;5286038;27;20103;-72
2022/01/18 03:12:46;;;;;;;73.93;25.10;;;;;;;4.09;100.00;103835.47;5286669;28;20028;-72
2022/01/18 03:15:17;;;;;;;79.18;24.92;;;;;;;4.08;100.00;103831.94;5284321;28;20024;-72
2022/01/18 03:17:47;;;;;;;72.30;23.67;;;;;;;4.07;100.00;103838.19;5265363;28;20069;-72
2022/01/18 03:20:19;;;;;;;90.10;25.30;;;;;;;4.08;100.00;103842.56;5263948;28;20016;-72
2022/01/18 03:22:50;;;;;;;68.97;22.77;;;;;;;4.13;100.00;103837.97;5265260;28;20020;-71
2022/01/18 03:28:11;;;;;;;91.38;25.13;;;;;;;4.08;100.00;103845.22;5265308;28;20496;-71
2022/01/18 03:30:44;;;;;;;67.68;21.95;;;;;;;4.09;100.00;103844.28;5264987;28;20055;-71
2022/01/18 03:33:18;;;;;;;59.95;21.45;;;;;;;4.11;100.00;103850.41;5269005;28;20031;-71
2022/01/18 03:35:51;;;;;;;68.45;23.05;;;;;;;4.05;100.00;103855.94;5286366;28;20024;-72
2022/01/18 03:38:31;;;;;;;69.28;21.75;;;;;;;4.04;100.00;103846.22;5265893;28;20035;-72
2022/01/18 03:41:04;;;;;;;58.70;22.17;;;;;;;4.08;100.00;103853.19;5278558;28;20094;-71
2022/01/18 03:43:35;;;;;;;60.63;20.50;;;;;;;4.07;100.00;103848.81;5273551;28;20107;-71
2022/01/18 03:46:05;;;;;;;59.65;20.92;;;;;;;4.07;100.00;103854.13;5271850;28;20162;-71
2022/01/18 03:48:38;;;;;;;52.33;20.52;;;;;;;4.03;100.00;103851.59;5285209;28;20032;-71
2022/01/18 03:51:09;;;;;;;68.93;19.83;;;;;;;3.95;100.00;103850.97;5281169;28;20886;-71
2022/01/18 03:53:39;;;;;;;49.35;17.70;;;;;;;3.94;100.00;103851.91;5276591;28;20607;-71
2022/01/18 03:56:10;;;;;;;55.20;18.80;;;;;;;3.91;100.00;103855.50;5266143;28;20028;-71
2022/01/18 03:58:41;;;;;;;42.92;16.75;;;;;;;3.91;100.00;103850.19;5264514;28;20103;-71
2022/01/18 04:01:11;;;;;;;59.20;20.20;;;;;;;3.90;100.00;103857.31;5284001;28;20492;-71
2022/01/18 04:03:42;;;;;;;50.70;20.02;;;;;;;3.84;100.00;103859.28;5284632;28;20027;-71
2022/01/18 04:06:12;;;;;;;68.13;21.05;;;;;;;3.81;100.00;103862.03;5264028;28;20034;-71
2022/01/18 04:08:43;;;;;;;42.63;17.88;;;;;;;3.88;100.00;103863.59;5279869;28;20336;-71
2022/01/18 04:11:13;;;;;;;46.70;17.40;;;;;;;3.82;100.00;103862.00;5283371;28;20028;-71
2022/01/18 04:13:44;;;;;;;41.60;16.35;;;;;;;3.85;100.00;103867.22;5270583;28;20369;-72
2022/01/18 04:16:15;;;;;;;81.57;19.17;;;;;;;3.83;100.00;103868.19;5274053;28;20162;-72
2022/01/18 04:27:09;;;;;;;43.92;14.20;;;;;;;3.71;100.00;103876.53;5270414;28;20024;-72
2022/01/18 04:29:40;;;;;;;55.20;14.27;;;;;;;3.70;100.00;103882.75;5284368;27;20431;-72
2022/01/18 04:32:10;;;;;;;55.03;15.05;;;;;;;3.68;100.00;103874.84;5284131;28;20019;-72
2022/01/18 04:34:41;;;;;;;49.50;14.77;;;;;;;3.63;100.00;103888.25;5283852;28;20474;-72
2022/01/18 04:37:11;;;;;;;50.15;17.67;;;;;;;3.59;100.00;103875.13;5284154;28;20027;-72
2022/01/18 04:39:43;;;;;;;55.70;14.75;;;;;;;3.57;100.00;103891.13;5280693;28;20058;-72
2022/01/18 04:42:20;;;;;;;51.83;17.55;;;;;;;3.50;100.00;103878.91;5263006;28;20382;-71
2022/01/18 04:50:28;;;;;;;63.75;17.95;;;;;;;3.54;100.00;103877.06;5274647;28;20019;-72
2022/01/18 04:52:59;;;;;;;69.78;17.35;;;;;;;3.50;100.00;103872.75;5264641;28;20020;-72
2022/01/18 04:55:32;;;;;;;60.90;17.23;;;;;;;3.53;100.00;103873.53;5273974;28;20081;-71
2022/01/18 04:58:02;;;;;;;70.03;18.40;;;;;;;3.52;100.00;103876.25;5276656;28;20031;-71
2022/01/18 05:00:34;;;;;;;90.57;20.75;;;;;;;3.47;100.00;103881.69;5263227;28;20366;-72
2022/01/18 05:03:04;;;;;;;71.65;19.52;;;;;;;3.42;100.00;103877.44;5283902;27;20047;-72
2022/01/18 05:05:37;;;;;;;83.22;20.27;;;;;;;3.41;100.00;103879.19;5283586;28;20020;-72
2022/01/18 05:08:13;;;;;;;58.13;16.98;;;;;;;3.43;100.00;103876.50;5273719;28;20028;-72
2022/01/18 05:10:49;;;;;;;72.55;18.13;;;;;;;3.50;100.00;103886.03;5236642;28;1127357;-72
2022/01/18 05:13:42;;;;;;;66.30;16.52;;;;;;;3.51;100.00;103883.31;5276241;28;20028;-72
2022/01/18 05:22:56;;;;;;;76.28;20.30;;;;;;;3.38;100.00;103880.16;5270437;28;20016;-72
2022/01/18 05:24:27;;;;;;;86.75;19.67;;;;;;;3.37;100.00;103881.09;5284052;28;20461;-72
2022/01/18 05:27:01;;;;;;;80.53;18.13;;;;;;;3.43;100.00;103895.09;5278525;28;20039;-73
2022/01/18 05:29:31;;;;;;;84.22;17.80;;;;;;;3.45;100.00;103890.59;5263519;28;20081;-73
2022/01/18 05:32:02;;;;;;;78.80;20.05;;;;;;;3.45;100.00;103893.25;5265798;28;20468;-73
2022/01/18 05:34:32;;;;;;;85.05;20.23;;;;;;;3.46;100.00;103900.28;5284832;28;20024;-73
2022/01/18 05:37:03;;;;;;;82.05;18.25;;;;;;;3.47;100.00;103894.97;5271543;28;20114;-72
2022/01/18 05:39:33;;;;;;;75.10;18.58;;;;;;;3.50;100.00;103893.97;5282870;28;20034;-73
2022/01/18 05:42:04;;;;;;;82.18;19.88;;;;;;;3.52;100.00;103897.47;5274478;28;20039;-72
2022/01/18 05:44:35;;;;;;;67.22;19.17;;;;;;;3.54;100.00;103892.97;5276482;28;20110;-72
2022/01/18 05:47:05;;;;;;;72.85;19.60;;;;;;;3.54;100.00;103892.97;5273912;28;20038;-73
2022/01/18 05:49:36;;;;;;;69.15;21.25;;;;;;;3.55;100.00;103900.03;5284048;28;20023;-73
2022/01/18 05:52:06;;;;;;;76.70;17.92;;;;;;;3.54;100.00;103901.81;5283895;28;20119;-73
2022/01/18 05:54:37;;;;;;;77.20;18.77;;;;;;;3.54;100.00;103904.47;5270670;28;20024;-73
2022/01/18 05:57:07;;;;;;;79.15;18.52;;;;;;;3.57;100.00;103899.06;5270690;28;20032;-72
2022/01/18 05:59:44;;;;;;;81.40;18.52;;;;;;;3.58;100.00;103897.28;5270726;28;20039;-72
2022/01/18 06:02:17;;;;;;;70.47;18.60;;;;;;;3.61;100.00;103891.88;5269571;28;20020;-73
2022/01/18 06:07:36;;;;;;;60.72;17.00;;;;;;;3.61;100.00;103899.84;5270597;28;20019;-72
2022/01/18 06:10:07;;;;;;;72.00;18.45;;;;;;;3.64;100.00;103908.59;5270573;28;20059;-73
2022/01/18 06:12:39;;;;;;;73.70;17.67;;;;;;;3.60;100.00;103900.75;5280366;28;20020;-73
2022/01/18 06:15:10;;;;;;;67.57;17.52;;;;;;;3.57;100.00;103900.88;5266666;28;20028;-72
2022/01/18 06:17:41;;;;;;;76.93;20.00;;;;;;;3.59;100.00;103896.38;5275389;28;20068;-72
2022/01/18 06:20:12;;;;;;;86.82;19.08;;;;;;;3.57;100.00;103895.56;5284805;28;20485;-72
2022/01/18 06:22:42;;;;;;;86.47;19.38;;;;;;;3.56;100.00;103899.09;5276682;28;20627;-72
2022/01/18 06:25:13;;;;;;;98.15;19.85;;;;;;;3.54;100.00;103904.47;5282336;28;20069;-73
2022/01/18 06:27:43;;;;;;;90.78;19.80;;;;;;;3.53;100.00;103905.38;5277859;28;20024;-73
2022/01/18 06:30:14;;;;;;;86.70;19.67;;;;;;;3.54;100.00;103900.94;5286890;28;20062;-73
2022/01/18 06:32:45;;;;;;;81.60;21.23;;;;;;;3.55;100.00;103898.25;5274510;28;20028;-73
2022/01/18 06:35:17;;;;;;;91.32;20.77;;;;;;;3.58;100.00;103899.94;5278528;28;20035;-73
2022/01/18 06:37:47;;;;;;;79.75;19.27;;;;;;;3.59;100.00;103901.69;5266542;28;20020;-74
2022/01/18 06:40:18;;;;;;;91.15;20.75;;;;;;;3.60;100.00;103904.28;5287202;28;20435;-73
2022/01/18 06:42:48;;;;;;;94.03;24.58;;;;;;;3.59;100.00;103904.34;5271371;28;20027;-73
2022/01/18 06:45:19;;;;;;;84.88;20.30;;;;;;;3.61;100.00;103906.03;5266030;28;20107;-74
2022/01/18 06:47:49;;;;;;;81.85;21.75;;;;;;;3.62;100.00;103906.91;5282884;28;20031;-74
2022/01/18 06:50:20;;;;;;;89.63;24.50;;;;;;;3.60;100.00;103903.41;5286842;28;20035;-73
2022/01/18 06:52:50;;;;;;;90.55;25.55;;;;;;;3.61;100.00;103913.09;5268975;28;20062;-73
2022/01/18 06:55:21;;;;;;;121.38;30.77;;;;;;;3.58;100.00;103903.47;5265559;28;20058;-73
2022/01/18 06:57:52;;;;;;;103.10;25.45;;;;;;;3.58;100.00;103910.56;5265783;28;20489;-73
2022/01/18 07:00:23;;;;;;;86.25;26.40;;;;;;;3.56;100.00;103904.41;5266572;28;20034;-72
2022/01/18 07:02:54;;;;;;;96.95;26.13;;;;;;;3.58;100.00;103908.78;5273095;28;20024;-73
2022/01/18 07:05:24;;;;;;;95.20;24.30;;;;;;;3.60;100.00;103917.56;5286397;28;20023;-73
2022/01/18 07:07:55;;;;;;;92.38;25.65;;;;;;;3.62;100.00;103910.44;5287032;28;20080;-73
2022/01/18 07:10:25;;;;;;;88.50;26.08;;;;;;;3.63;100.00;103909.50;5286326;28;20286;-73
2022/01/18 07:12:57;;;;;;;95.57;23.42;;;;;;;3.58;100.00;103915.88;5277189;28;20028;-74
2022/01/18 07:15:28;;;;;;;79.65;23.33;;;;;;;3.55;100.00;103911.50;5265057;28;20496;-73
2022/01/18 07:17:59;;;;;;;85.50;23.30;;;;;;;3.59;100.00;103914.94;5265336;28;20103;-73
2022/01/18 07:20:30;;;;;;;94.93;23.75;;;;;;;3.61;100.00;103910.44;5278752;28;20059;-74
2022/01/18 07:23:01;;;;;;;99.97;25.38;;;;;;;3.60;100.00;103911.38;5264185;28;20528;-72
2022/01/18 07:25:31;;;;;;;103.30;25.05;;;;;;;3.61;100.00;103913.09;5277702;28;20024;-72
2022/01/18 07:28:02;;;;;;;101.15;25.90;;;;;;;3.63;100.00;103912.16;5278806;28;20107;-72
2022/01/18 07:30:32;;;;;;;91.15;23.80;;;;;;;3.64;100.00;103915.69;5264792;28;20020;-72
2022/01/18 07:33:04;;;;;;;76.47;21.63;;;;;;;3.63;100.00;103905.97;5280704;28;20115;-72
2022/01/18 07:35:35;;;;;;;82.82;21.90;;;;;;;3.64;100.00;103911.25;5276343;27;20019;-72
2022/01/18 07:38:06;;;;;;;83.43;23.27;;;;;;;3.68;100.00;103911.16;5278807;28;20035;-72
2022/01/18 07:40:39;;;;;;;89.63;22.58;;;;;;;3.69;100.00;103919.06;5266504;28;20324;-72
2022/01/18 07:43:10;;;;;;;80.57;22.05;;;;;;;3.72;100.00;103911.03;5280519;27;20467;-72
2022/01/18 07:45:42;;;;;;;96.95;23.45;;;;;;;3.75;100.00;103924.19;5292737;27;20392;-72
2022/01/18 07:48:13;;;;;;;89.10;22.33;;;;;;;3.76;100.00;103928.56;5284161;28;20034;-72
2022/01/18 07:50:44;;;;;;;79.65;22.20;;;;;;;3.76;100.00;103930.34;5283724;28;20024;-72
2022/01/18 07:53:14;;;;;;;80.50;22.90;;;;;;;3.80;100.00;103924.91;5271112;28;20019;-72
2022/01/18 07:55:46;;;;;;;71.60;22.73;;;;;;;3.81;100.00;103926.66;5283398;28;20023;-71
2022/01/18 07:58:17;;;;;;;86.75;23.75;;;;;;;3.82;100.00;103931.06;5284067;28;20037;-71
2022/01/18 08:00:48;;;;;;;83.03;22.25;;;;;;;3.86;100.00;103927.38;5279386;28;20020;-71
2022/01/18 08:03:18;;;;;;;83.55;23.90;;;;;;;3.87;100.00;103923.81;5262917;28;20457;-72
2022/01/18 08:05:51;;;;;;;85.28;25.10;;;;;;;3.89;100.00;103932.59;5281177;28;20488;-71
2022/01/18 08:08:22;;;;;;;99.57;27.27;;;;;;;3.89;100.00;103932.59;5283546;28;20118;-71
2022/01/18 08:10:53;;;;;;;95.90;25.15;;;;;;;3.91;100.00;103940.50;5263633;28;20161;-72
2022/01/18 08:13:28;;;;;;;87.25;24.08;;;;;;;3.96;100.00;103941.25;5276495;28;20115;-72
2022/01/18 08:16:10;;;;;;;;;;;;;;;3.98;100.00;103936.75;5276286;28;20503;-72
2022/01/18 08:18:41;;;;;;;83.38;25.20;;;;;;;4.04;100.00;103939.22;5262448;28;19919;-72
2022/01/18 08:21:11;;;;;;;95.18;24.42;;;;;;;3.99;100.00;103935.84;5262745;28;20016;-71
2022/01/18 08:23:42;;;;;;;98.93;25.73;;;;;;;4.04;100.00;103933.91;5281064;28;20161;-72
2022/01/18 08:26:12;;;;;;;87.65;24.75;;;;;;;4.18;100.00;103943.25;5269805;27;20035;-71
2022/01/18 08:28:43;;;;;;;87.10;27.85;;;;;;;4.17;100.00;103931.75;5274750;28;20103;-72
2022/01/18 08:31:14;;;;;;;79.43;24.92;;;;;;;4.18;100.00;103932.59;5262388;28;20545;-72
2022/01/18 08:33:44;;;;;;;78.10;23.70;;;;;;;4.20;100.00;103930.75;5270305;28;20459;-72
2022/01/18 08:36:15;;;;;;;87.35;24.08;;;;;;;4.24;100.00;103933.28;5269305;28;20016;-72
2022/01/18 08:38:47;;;;;;;81.05;26.35;;;;;;;4.28;100.00;103936.72;5275365;28;20127;-72
2022/01/18 08:41:18;;;;;;;100.57;31.23;;;;;;;4.26;100.00;103935.88;5264738;28;20114;-72
2022/01/18 08:43:49;;;;;;;93.80;31.60;;;;;;;4.32;100.00;103935.69;5283735;28;20153;-71
2022/01/18 08:46:20;;;;;;;96.47;30.27;;;;;;;4.32;100.00;103941.88;5265418;28;20019;-71
2022/01/18 08:48:51;;;;;;;82.95;26.42;;;;;;;4.37;100.00;103934.63;5262332;28;20024;-71
2022/01/18 08:51:22;;;;;;;82.78;25.73;;;;;;;4.38;100.00;103936.34;5267276;28;20042;-72
2022/01/18 08:53:52;;;;;;;84.75;28.27;;;;;;;4.47;100.00;103939.59;5270145;28;20035;-72
2022/01/18 08:56:23;;;;;;;96.07;29.63;;;;;;;4.54;100.00;103941.16;5268284;28;20024;-72
2022/01/18 08:58:54;;;;;;;76.45;24.67;;;;;;;4.58;100.00;103941.00;5268498;28;20034;-72
2022/01/18 09:01:24;;;;;;;80.45;24.05;;;;;;;4.65;100.00;103931.00;5271459;28;20385;-72
2022/01/18 09:03:55;;;;;;;79.93;21.77;;;;;;;4.80;100.00;103933.16;5283265;28;20102;-72
2022/01/18 09:06:25;;;;;;;77.95;22.38;;;;;;;4.96;100.00;103927.28;5282444;28;20535;-72
2022/01/18 09:08:57;;;;;;;83.50;24.98;;;;;;;5.18;100.00;103933.59;5266190;28;20382;-71
2022/01/18 09:11:31;;;;;;;72.47;22.45;;;;;;;5.27;100.00;103935.91;5261811;28;20059;-72
2022/01/18 09:14:01;;;;;;;81.70;24.98;;;;;;;5.26;100.00;103930.63;5266528;28;20156;-72
2022/01/18 09:16:32;;;;;;;76.68;26.70;;;;;;;5.13;100.00;103925.78;5270655;28;20529;-72
2022/01/18 09:19:02;;;;;;;84.88;26.65;;;;;;;5.08;100.00;103925.06;5266777;28;20421;-72
2022/01/18 09:21:34;;;;;;;90.43;27.13;;;;;;;4.96;100.00;103929.94;5269981;28;20357;-72
2022/01/18 09:24:05;;;;;;;89.47;30.63;;;;;;;4.87;100.00;103924.03;5282699;28;20043;-72
2022/01/18 09:26:35;;;;;;;97.38;28.35;;;;;;;4.85;100.00;103936.50;5265820;28;20077;-72
2022/01/18 09:29:09;;;;;;;89.78;26.75;;;;;;;4.91;100.00;103930.09;5261908;28;20027;-71
2022/01/18 09:31:40;;;;;;;79.50;24.42;;;;;;;4.96;100.00;103922.81;5275088;28;20416;-72
2022/01/18 09:34:11;;;;;;;82.35;25.85;;;;;;;4.97;100.00;103932.56;5261445;28;20028;-72
2022/01/18 09:36:42;;;;;;;69.68;24.05;;;;;;;5.04;100.00;103925.22;5275568;28;20051;-72
2022/01/18 09:39:13;;;;;;;62.42;22.38;;;;;;;5.13;100.00;103936.41;5261139;28;20028;-72
2022/01/18 09:41:50;;;;;;;64.53;21.67;;;;;;;5.20;100.00;103929.94;5281248;28;20435;-72
2022/01/18 09:44:21;;;;;;;67.13;19.13;;;;;;;5.27;100.00;103932.34;5280179;28;20028;-72
2022/01/18 09:46:52;;;;;;;54.42;19.42;;;;;;;5.25;100.00;103931.56;5264002;28;20383;-72
2022/01/18 09:49:24;;;;;;;75.25;19.60;;;;;;;5.21;100.00;103936.13;5265007;28;20114;-72
2022/01/18 09:51:55;;;;;;;55.63;19.83;;;;;;;5.21;100.00;103933.47;5266064;28;20051;-72
2022/01/18 09:54:26;;;;;;;61.67;24.10;;;;;;;5.26;100.00;103933.28;5268615;28;20430;-72
2022/01/18 09:56:57;;;;;;;67.85;24.17;;;;;;;5.30;100.00;103938.44;5275150;28;20024;-72
2022/01/18 09:59:27;;;;;;;59.25;20.95;;;;;;;5.33;100.00;103946.34;5264967;28;20026;-72
2022/01/18 10:02:00;;;;;;;55.85;20.23;;;;;;;5.38;100.00;103948.81;5279411;28;20012;-72
2022/01/18 10:04:38;;;;;;;51.80;20.55;;;;;;;5.47;100.00;103951.13;5286544;28;20023;-72
2022/01/18 10:07:10;;;;;;;63.80;21.50;;;;;;;5.54;100.00;103951.78;5285722;28;20081;-72
2022/01/18 10:09:40;;;;;;;60.03;22.55;;;;;;;5.60;100.00;103952.41;5286145;28;20033;-72
2022/01/18 10:12:15;;;;;;;68.13;21.55;;;;;;;5.78;100.00;103956.19;5282735;28;20016;-72
2022/01/18 10:15:04;;;;;;;62.83;22.05;;;;;;;5.82;100.00;103949.78;5276600;28;20024;-72
2022/01/18 10:17:38;;;;;;;61.33;20.88;;;;;;;5.97;100.00;103957.22;5272922;28;20016;-72
2022/01/18 10:20:13;;;;;;;66.70;21.00;;;;;;;5.95;100.00;103947.53;5282375;28;20752;-72
2022/01/18 10:22:49;;;;;;;62.90;20.92;;;;;;;6.03;100.00;103940.13;5275180;28;20046;-72
2022/01/18 10:25:23;;;;;;;60.30;23.48;;;;;;;6.01;100.00;103941.09;5275859;27;20258;-72
2022/01/18 10:27:54;;;;;;;50.13;22.75;;;;;;;6.09;100.00;103939.00;5284139;28;20042;-72
2022/01/18 10:30:35;;;;;;;134.82;57.00;;;;;;;6.17;100.00;103945.75;5278278;28;20028;-72
2022/01/18 10:33:12;;;;;;;92.55;37.17;;;;;;;6.37;100.00;103944.94;5266476;28;20025;-72
2022/01/18 10:36:20;;;;;;;105.07;39.65;;;;;;;6.42;100.00;103942.94;5285746;28;20019;-72
2022/01/18 10:39:01;;;;;;;134.90;51.83;;;;;;;6.40;100.00;103936.81;5286073;28;20504;-72
2022/01/18 10:41:34;;;;;;;113.05;49.58;;;;;;;6.52;100.00;103934.56;5281138;27;20028;-72
2022/01/18 10:44:08;;;;;;;114.70;47.25;;;;;;;6.58;100.00;103929.00;5264424;28;20078;-72
2022/01/18 10:46:55;;;;;;;88.53;35.47;;;;;;;6.67;100.00;103926.78;5276495;28;20032;-72
2022/01/18 10:49:31;;;;;;;90.93;39.63;;;;;;;6.49;100.00;103927.56;5277638;28;20400;-72
2022/01/18 10:52:22;;;;;;;86.50;34.33;;;;;;;6.54;100.00;103930.03;5275386;28;20024;-72
2022/01/18 10:54:56;;;;;;;81.40;30.10;;;;;;;6.64;100.00;103912.72;5277539;28;20034;-72
2022/01/18 10:57:32;;;;;;;78.53;28.40;;;;;;;6.66;100.00;103927.72;5265810;28;20031;-72
2022/01/18 11:00:22;;;;;;;78.18;31.77;;;;;;;6.68;100.00;103920.53;5275571;27;20039;-72
2022/01/18 11:02:54;;;;;;;69.72;27.83;;;;;;;6.83;100.00;103920.75;5265154;28;20070;-72
2022/01/18 11:05:29;;;;;;;71.40;29.33;;;;;;;6.92;100.00;103909.69;5277168;28;20023;-72
2022/01/18 11:08:03;;;;;;;80.00;30.83;;;;;;;6.97;100.00;103910.34;5285432;28;20053;-73
2022/01/18 11:10:36;;;;;;;76.72;28.48;;;;;;;7.13;100.00;103906.09;5270865;28;20067;-72
2022/01/18 11:13:11;;;;;;;57.72;23.13;;;;;;;7.12;100.00;103907.00;5275060;28;20558;-73
2022/01/18 11:15:46;;;;;;;74.80;27.27;;;;;;;7.12;100.00;103900.78;5281560;28;20424;-72
2022/01/18 11:18:25;;;;;;;100.40;26.73;;;;;;;7.26;100.00;103903.72;5284707;28;20024;-73
2022/01/18 11:21:01;;;;;;;59.53;23.20;;;;;;;7.49;100.00;103884.81;5284900;28;20023;-72
2022/01/18 11:23:34;;;;;;;51.85;20.65;;;;;;;7.58;100.00;103878.19;5284783;28;20028;-72
2022/01/18 11:26:06;;;;;;;62.38;21.63;;;;;;;7.53;100.00;103883.75;5271789;28;20020;-72
2022/01/18 11:28:37;;;;;;;63.22;20.48;;;;;;;7.35;100.00;103873.91;5277036;28;20473;-73
2022/01/18 11:31:10;;;;;;;52.83;21.35;;;;;;;7.33;100.00;103875.81;5262086;28;20115;-73
2022/01/18 11:33:50;;;;;;;49.50;20.63;;;;;;;7.39;100.00;103875.50;5270859;28;20462;-72
2022/01/18 11:36:24;;;;;;;59.28;21.45;;;;;;;7.52;100.00;103878.44;5283716;28;20469;-72
2022/01/18 11:39:00;;;;;;;59.80;20.50;;;;;;;7.74;100.00;103863.16;5284393;27;20337;-74
2022/01/18 11:41:34;;;;;;;54.38;22.05;;;;;;;7.66;100.00;103865.31;5264241;28;20100;-72
2022/01/18 11:44:27;;;;;;;72.38;21.90;;;;;;;7.60;100.00;103865.59;5276930;28;20023;-73
2022/01/18 11:46:58;;;;;;;48.58;17.25;;;;;;;7.81;100.00;103857.50;5273517;28;20039;-72
2022/01/18 11:49:32;;;;;;;48.58;17.42;;;;;;;7.91;100.00;103854.28;5279991;28;20016;-74
2022/01/18 11:52:47;;;;;;;61.30;18.20;;;;;;;8.10;100.00;103853.38;5263531;28;20074;-72
2022/01/18 11:55:37;;;;;;;50.28;16.63;;;;;;;8.09;100.00;103857.88;5275247;28;20491;-72
2022/01/18 11:58:27;;;;;;;51.35;18.40;;;;;;;8.11;100.00;103847.09;5271215;28;20024;-73
2022/01/18 12:01:00;;;;;;;50.15;17.98;;;;;;;8.16;100.00;103845.03;5271417;28;20076;-72
2022/01/18 12:03:41;;;;;;;46.40;18.73;;;;;;;8.22;100.00;103845.59;5284521;28;20034;-72
2022/01/18 12:06:12;;;;;;;48.75;18.85;;;;;;;8.27;100.00;103845.34;5271417;28;20024;-72
2022/01/18 12:08:44;;;;;;;55.85;18.73;;;;;;;8.31;100.00;103852.28;5284510;28;20034;-73
2022/01/18 12:11:26;;;;;;;55.13;19.50;;;;;;;8.41;100.00;103842.03;5274928;28;20110;-73
2022/01/18 12:13:58;;;;;;;51.78;15.80;;;;;;;8.70;100.00;103829.81;5277031;28;20107;-72
2022/01/18 12:16:30;;;;;;;49.28;14.90;;;;;;;8.76;100.00;103824.13;5275409;28;20019;-73
2022/01/18 12:19:05;;;;;;;49.33;14.98;;;;;;;8.67;100.00;103820.09;5284844;28;20388;-73
2022/01/18 12:21:44;;;;;;;52.58;17.00;;;;;;;8.68;100.00;103829.00;5283823;28;20388;-73
2022/01/18 12:24:17;;;;;;;47.25;18.30;;;;;;;8.69;100.00;103825.41;5272455;28;20492;-72
2022/01/18 12:26:59;;;;;;;59.88;17.83;;;;;;;8.70;100.00;103816.41;5263742;28;20023;-73
2022/01/18 12:34:38;;;;;;;53.25;18.58;;;;;;;8.95;100.00;103819.50;5284655;28;20452;-73
2022/01/18 12:37:10;;;;;;;51.13;16.40;;;;;;;8.84;100.00;103819.22;5275579;28;20108;-73
2022/01/18 12:39:51;;;;;;;48.15;16.23;;;;;;;8.75;100.00;103819.72;5263489;28;20434;-73